sensor_id;sensor_type;location;lat;lon;timestamp;P1;durP1;ratioP1;P2;durP2;ratioP2
34725;SDS011;20951;50.818;4.344;2023-02-18T00:01:21;25.02;;;16.77;;
34725;SDS011;20951;50.818;4.344;2023-02-18T00:03:48;26.52;;;16.55;;
34725;SDS011;20951;50.818;4.344;2023-02-18T00:08:43;25.25;;;15.77;;
34725;SDS011;20951;50.818;4.344;2023-02-18T00:11:09;26.75;;;15.45;;
34725;SDS011;20951;50.818;4.344;2023-02-18T00:13:35;22.90;;;14.77;;
34725;SDS011;20951;50.818;4.344;2023-02-18T00:16:03;24.83;;;14.55;;
34725;SDS011;20951;50.818;4.344;2023-02-18T00:18:30;22.92;;;14.10;;
34725;SDS011;20951;50.818;4.344;2023-02-18T00:20:56;26.13;;;14.38;;
34725;SDS011;20951;50.818;4.344;2023-02-18T00:23:23;21.25;;;13.65;;
34725;SDS011;20951;50.818;4.344;2023-02-18T00:25:49;20.90;;;13.55;;
34725;SDS011;20951;50.818;4.344;2023-02-18T00:28:22;21.25;;;13.98;;
34725;SDS011;20951;50.818;4.344;2023-02-18T00:30:48;19.58;;;12.93;;
34725;SDS011;20951;50.818;4.344;2023-02-18T00:33:14;21.35;;;12.32;;
34725;SDS011;20951;50.818;4.344;2023-02-18T00:35:40;20.48;;;13.18;;
34725;SDS011;20951;50.818;4.344;2023-02-18T00:38:06;18.48;;;12.73;;
34725;SDS011;20951;50.818;4.344;2023-02-18T00:40:36;20.35;;;12.18;;
34725;SDS011;20951;50.818;4.344;2023-02-18T00:43:02;19.58;;;12.50;;
34725;SDS011;20951;50.818;4.344;2023-02-18T00:45:28;20.05;;;11.80;;
34725;SDS011;20951;50.818;4.344;2023-02-18T00:47:54;14.80;;;10.82;;
34725;SDS011;20951;50.818;4.344;2023-02-18T00:50:20;21.73;;;11.75;;
34725;SDS011;20951;50.818;4.344;2023-02-18T00:52:46;18.38;;;10.65;;
34725;SDS011;20951;50.818;4.344;2023-02-18T00:55:12;16.35;;;10.40;;
34725;SDS011;20951;50.818;4.344;2023-02-18T00:57:38;17.08;;;10.52;;
34725;SDS011;20951;50.818;4.344;2023-02-18T01:00:05;16.02;;;10.30;;
34725;SDS011;20951;50.818;4.344;2023-02-18T01:02:34;16.98;;;10.00;;
34725;SDS011;20951;50.818;4.344;2023-02-18T01:05:00;16.02;;;9.13;;
34725;SDS011;20951;50.818;4.344;2023-02-18T01:07:26;13.23;;;8.48;;
34725;SDS011;20951;50.818;4.344;2023-02-18T01:09:52;11.48;;;7.38;;
34725;SDS011;20951;50.818;4.344;2023-02-18T01:12:18;12.50;;;7.70;;
34725;SDS011;20951;50.818;4.344;2023-02-18T01:14:44;11.88;;;6.93;;
34725;SDS011;20951;50.818;4.344;2023-02-18T01:17:10;12.93;;;7.68;;
34725;SDS011;20951;50.818;4.344;2023-02-18T01:19:36;9.93;;;6.15;;
34725;SDS011;20951;50.818;4.344;2023-02-18T01:22:02;9.43;;;5.80;;
34725;SDS011;20951;50.818;4.344;2023-02-18T01:24:28;9.45;;;5.90;;
34725;SDS011;20951;50.818;4.344;2023-02-18T01:26:54;7.63;;;5.18;;
34725;SDS011;20951;50.818;4.344;2023-02-18T01:29:20;8.10;;;5.18;;
34725;SDS011;20951;50.818;4.344;2023-02-18T01:31:46;6.65;;;4.60;;
34725;SDS011;20951;50.818;4.344;2023-02-18T01:34:12;8.43;;;4.90;;
34725;SDS011;20951;50.818;4.344;2023-02-18T01:36:39;6.32;;;4.45;;
34725;SDS011;20951;50.818;4.344;2023-02-18T01:39:05;7.03;;;4.75;;
34725;SDS011;20951;50.818;4.344;2023-02-18T01:41:31;6.13;;;4.68;;
34725;SDS011;20951;50.818;4.344;2023-02-18T01:44:19;5.13;;;3.50;;
34725;SDS011;20951;50.818;4.344;2023-02-18T01:46:48;5.30;;;3.72;;
34725;SDS011;20951;50.818;4.344;2023-02-18T01:49:18;5.60;;;3.90;;
34725;SDS011;20951;50.818;4.344;2023-02-18T01:51:52;5.40;;;3.90;;
34725;SDS011;20951;50.818;4.344;2023-02-18T01:54:32;6.57;;;3.58;;
34725;SDS011;20951;50.818;4.344;2023-02-18T01:57:08;4.90;;;3.53;;
34725;SDS011;20951;50.818;4.344;2023-02-18T01:59:44;5.22;;;3.65;;
34725;SDS011;20951;50.818;4.344;2023-02-18T02:02:14;5.78;;;3.80;;
34725;SDS011;20951;50.818;4.344;2023-02-18T02:04:43;5.32;;;3.78;;
34725;SDS011;20951;50.818;4.344;2023-02-18T02:07:09;4.38;;;3.17;;
34725;SDS011;20951;50.818;4.344;2023-02-18T02:09:36;7.93;;;3.85;;
34725;SDS011;20951;50.818;4.344;2023-02-18T02:33:15;4.00;;;2.67;;
34725;SDS011;20951;50.818;4.344;2023-02-18T02:39:14;3.80;;;2.65;;
34725;SDS011;20951;50.818;4.344;2023-02-18T02:44:43;5.00;;;3.20;;
34725;SDS011;20951;50.818;4.344;2023-02-18T02:47:13;5.43;;;3.90;;
34725;SDS011;20951;50.818;4.344;2023-02-18T02:52:36;6.65;;;4.82;;
34725;SDS011;20951;50.818;4.344;2023-02-18T02:55:17;7.32;;;5.10;;
34725;SDS011;20951;50.818;4.344;2023-02-18T02:57:45;7.07;;;5.38;;
34725;SDS011;20951;50.818;4.344;2023-02-18T03:00:17;6.93;;;5.10;;
34725;SDS011;20951;50.818;4.344;2023-02-18T03:02:55;7.15;;;5.47;;
34725;SDS011;20951;50.818;4.344;2023-02-18T03:08:13;9.25;;;6.30;;
34725;SDS011;20951;50.818;4.344;2023-02-18T03:11:02;7.57;;;5.57;;
34725;SDS011;20951;50.818;4.344;2023-02-18T03:16:34;10.18;;;6.50;;
34725;SDS011;20951;50.818;4.344;2023-02-18T03:19:18;10.35;;;6.50;;
34725;SDS011;20951;50.818;4.344;2023-02-18T03:22:12;8.85;;;6.32;;
34725;SDS011;20951;50.818;4.344;2023-02-18T03:27:19;8.20;;;5.78;;
34725;SDS011;20951;50.818;4.344;2023-02-18T03:29:58;9.45;;;6.40;;
34725;SDS011;20951;50.818;4.344;2023-02-18T03:32:35;9.75;;;6.60;;
34725;SDS011;20951;50.818;4.344;2023-02-18T03:35:10;10.48;;;6.88;;
34725;SDS011;20951;50.818;4.344;2023-02-18T03:37:44;8.32;;;6.00;;
34725;SDS011;20951;50.818;4.344;2023-02-18T03:40:16;9.52;;;6.40;;
34725;SDS011;20951;50.818;4.344;2023-02-18T03:42:43;8.57;;;6.18;;
34725;SDS011;20951;50.818;4.344;2023-02-18T03:45:09;9.35;;;6.57;;
34725;SDS011;20951;50.818;4.344;2023-02-18T03:47:35;9.95;;;6.43;;
34725;SDS011;20951;50.818;4.344;2023-02-18T03:50:01;8.82;;;6.13;;
34725;SDS011;20951;50.818;4.344;2023-02-18T03:52:27;9.43;;;6.38;;
34725;SDS011;20951;50.818;4.344;2023-02-18T03:54:53;10.98;;;6.53;;
34725;SDS011;20951;50.818;4.344;2023-02-18T03:57:19;9.10;;;6.75;;
34725;SDS011;20951;50.818;4.344;2023-02-18T03:59:45;8.48;;;6.45;;
34725;SDS011;20951;50.818;4.344;2023-02-18T04:02:11;9.52;;;6.32;;
34725;SDS011;20951;50.818;4.344;2023-02-18T04:04:37;9.55;;;6.60;;
34725;SDS011;20951;50.818;4.344;2023-02-18T04:07:03;8.82;;;6.60;;
34725;SDS011;20951;50.818;4.344;2023-02-18T04:09:29;9.15;;;6.60;;
34725;SDS011;20951;50.818;4.344;2023-02-18T04:11:55;9.50;;;6.88;;
34725;SDS011;20951;50.818;4.344;2023-02-18T04:14:21;10.13;;;7.47;;
34725;SDS011;20951;50.818;4.344;2023-02-18T04:16:47;9.05;;;6.82;;
34725;SDS011;20951;50.818;4.344;2023-02-18T04:19:13;8.75;;;6.32;;
34725;SDS011;20951;50.818;4.344;2023-02-18T04:21:39;11.07;;;7.03;;
34725;SDS011;20951;50.818;4.344;2023-02-18T04:24:05;8.90;;;6.70;;
34725;SDS011;20951;50.818;4.344;2023-02-18T04:26:31;9.85;;;6.75;;
34725;SDS011;20951;50.818;4.344;2023-02-18T04:28:57;8.77;;;6.47;;
34725;SDS011;20951;50.818;4.344;2023-02-18T04:31:23;8.27;;;6.28;;
34725;SDS011;20951;50.818;4.344;2023-02-18T04:33:50;7.95;;;5.80;;
34725;SDS011;20951;50.818;4.344;2023-02-18T04:36:16;8.23;;;6.35;;
34725;SDS011;20951;50.818;4.344;2023-02-18T04:38:42;8.10;;;6.28;;
34725;SDS011;20951;50.818;4.344;2023-02-18T04:41:08;8.70;;;6.13;;
34725;SDS011;20951;50.818;4.344;2023-02-18T04:43:34;9.38;;;6.63;;
34725;SDS011;20951;50.818;4.344;2023-02-18T04:46:00;13.70;;;6.90;;
34725;SDS011;20951;50.818;4.344;2023-02-18T04:48:26;8.80;;;6.30;;
34725;SDS011;20951;50.818;4.344;2023-02-18T04:50:52;8.27;;;5.90;;
34725;SDS011;20951;50.818;4.344;2023-02-18T04:53:18;8.18;;;5.72;;
34725;SDS011;20951;50.818;4.344;2023-02-18T04:55:48;9.13;;;5.85;;
34725;SDS011;20951;50.818;4.344;2023-02-18T04:58:15;8.77;;;5.68;;
34725;SDS011;20951;50.818;4.344;2023-02-18T05:00:43;9.00;;;6.40;;
34725;SDS011;20951;50.818;4.344;2023-02-18T05:03:09;8.68;;;6.28;;
34725;SDS011;20951;50.818;4.344;2023-02-18T05:05:35;8.70;;;6.22;;
34725;SDS011;20951;50.818;4.344;2023-02-18T05:08:03;8.27;;;5.82;;
34725;SDS011;20951;50.818;4.344;2023-02-18T05:10:29;9.35;;;6.25;;
34725;SDS011;20951;50.818;4.344;2023-02-18T05:12:59;9.18;;;5.63;;
34725;SDS011;20951;50.818;4.344;2023-02-18T05:15:26;6.95;;;4.97;;
34725;SDS011;20951;50.818;4.344;2023-02-18T05:17:53;6.63;;;4.50;;
34725;SDS011;20951;50.818;4.344;2023-02-18T05:20:19;7.63;;;4.72;;
34725;SDS011;20951;50.818;4.344;2023-02-18T05:22:45;6.35;;;4.32;;
34725;SDS011;20951;50.818;4.344;2023-02-18T05:25:11;7.90;;;4.20;;
34725;SDS011;20951;50.818;4.344;2023-02-18T05:27:37;6.72;;;3.40;;
34725;SDS011;20951;50.818;4.344;2023-02-18T05:30:03;6.22;;;3.97;;
34725;SDS011;20951;50.818;4.344;2023-02-18T05:32:30;6.63;;;3.25;;
34725;SDS011;20951;50.818;4.344;2023-02-18T05:34:56;6.93;;;3.58;;
34725;SDS011;20951;50.818;4.344;2023-02-18T05:37:22;7.75;;;3.50;;
34725;SDS011;20951;50.818;4.344;2023-02-18T05:39:48;6.40;;;3.55;;
34725;SDS011;20951;50.818;4.344;2023-02-18T05:42:14;6.68;;;4.40;;
34725;SDS011;20951;50.818;4.344;2023-02-18T05:44:40;7.50;;;4.55;;
34725;SDS011;20951;50.818;4.344;2023-02-18T05:47:08;8.85;;;4.38;;
34725;SDS011;20951;50.818;4.344;2023-02-18T05:49:36;14.35;;;4.32;;
34725;SDS011;20951;50.818;4.344;2023-02-18T05:52:03;16.02;;;5.38;;
34725;SDS011;20951;50.818;4.344;2023-02-18T05:54:30;10.65;;;4.97;;
34725;SDS011;20951;50.818;4.344;2023-02-18T05:56:56;9.02;;;4.40;;
34725;SDS011;20951;50.818;4.344;2023-02-18T05:59:22;11.68;;;4.60;;
34725;SDS011;20951;50.818;4.344;2023-02-18T06:01:49;11.35;;;4.40;;
34725;SDS011;20951;50.818;4.344;2023-02-18T06:04:15;12.57;;;4.03;;
34725;SDS011;20951;50.818;4.344;2023-02-18T06:06:41;11.75;;;3.85;;
34725;SDS011;20951;50.818;4.344;2023-02-18T06:09:08;12.23;;;3.25;;
34725;SDS011;20951;50.818;4.344;2023-02-18T06:11:34;13.52;;;3.38;;
34725;SDS011;20951;50.818;4.344;2023-02-18T06:14:00;10.63;;;2.90;;
34725;SDS011;20951;50.818;4.344;2023-02-18T06:16:26;14.65;;;3.53;;
34725;SDS011;20951;50.818;4.344;2023-02-18T06:18:53;16.58;;;3.17;;
34725;SDS011;20951;50.818;4.344;2023-02-18T06:21:19;16.05;;;3.28;;
34725;SDS011;20951;50.818;4.344;2023-02-18T06:23:45;14.60;;;3.28;;
34725;SDS011;20951;50.818;4.344;2023-02-18T06:26:11;15.05;;;3.15;;
34725;SDS011;20951;50.818;4.344;2023-02-18T06:28:37;16.73;;;3.70;;
34725;SDS011;20951;50.818;4.344;2023-02-18T06:31:03;17.50;;;3.30;;
34725;SDS011;20951;50.818;4.344;2023-02-18T06:33:29;18.13;;;3.20;;
34725;SDS011;20951;50.818;4.344;2023-02-18T06:36:00;18.33;;;3.35;;
34725;SDS011;20951;50.818;4.344;2023-02-18T06:38:31;15.20;;;3.40;;
34725;SDS011;20951;50.818;4.344;2023-02-18T06:40:57;19.40;;;3.33;;
34725;SDS011;20951;50.818;4.344;2023-02-18T06:43:23;17.08;;;3.30;;
34725;SDS011;20951;50.818;4.344;2023-02-18T06:45:50;18.65;;;3.05;;
34725;SDS011;20951;50.818;4.344;2023-02-18T06:48:16;20.25;;;3.55;;
34725;SDS011;20951;50.818;4.344;2023-02-18T06:50:42;19.48;;;3.30;;
34725;SDS011;20951;50.818;4.344;2023-02-18T06:53:09;16.67;;;3.53;;
34725;SDS011;20951;50.818;4.344;2023-02-18T06:55:36;18.60;;;3.30;;
34725;SDS011;20951;50.818;4.344;2023-02-18T06:58:04;13.10;;;2.65;;
34725;SDS011;20951;50.818;4.344;2023-02-18T07:00:30;19.77;;;3.20;;
34725;SDS011;20951;50.818;4.344;2023-02-18T07:02:56;17.38;;;3.15;;
34725;SDS011;20951;50.818;4.344;2023-02-18T07:05:22;17.35;;;3.47;;
34725;SDS011;20951;50.818;4.344;2023-02-18T07:07:48;19.20;;;3.42;;
34725;SDS011;20951;50.818;4.344;2023-02-18T07:10:14;18.25;;;3.30;;
34725;SDS011;20951;50.818;4.344;2023-02-18T07:12:40;18.13;;;3.72;;
34725;SDS011;20951;50.818;4.344;2023-02-18T07:15:06;16.98;;;3.50;;
34725;SDS011;20951;50.818;4.344;2023-02-18T07:17:32;14.70;;;3.20;;
34725;SDS011;20951;50.818;4.344;2023-02-18T07:20:00;17.88;;;3.35;;
34725;SDS011;20951;50.818;4.344;2023-02-18T07:22:29;15.95;;;3.20;;
34725;SDS011;20951;50.818;4.344;2023-02-18T07:24:57;14.70;;;2.75;;
34725;SDS011;20951;50.818;4.344;2023-02-18T07:27:25;17.20;;;3.33;;
34725;SDS011;20951;50.818;4.344;2023-02-18T07:29:53;16.73;;;3.30;;
34725;SDS011;20951;50.818;4.344;2023-02-18T07:32:22;17.38;;;3.53;;
34725;SDS011;20951;50.818;4.344;2023-02-18T07:34:50;16.45;;;3.10;;
34725;SDS011;20951;50.818;4.344;2023-02-18T07:37:18;21.42;;;3.20;;
34725;SDS011;20951;50.818;4.344;2023-02-18T07:39:46;21.23;;;3.63;;
34725;SDS011;20951;50.818;4.344;2023-02-18T07:42:14;16.23;;;3.10;;
34725;SDS011;20951;50.818;4.344;2023-02-18T07:44:42;18.33;;;3.30;;
34725;SDS011;20951;50.818;4.344;2023-02-18T07:47:12;17.30;;;3.40;;
34725;SDS011;20951;50.818;4.344;2023-02-18T07:49:41;14.35;;;3.17;;
34725;SDS011;20951;50.818;4.344;2023-02-18T07:52:09;19.20;;;3.40;;
34725;SDS011;20951;50.818;4.344;2023-02-18T07:54:37;16.23;;;3.00;;
34725;SDS011;20951;50.818;4.344;2023-02-18T07:57:05;16.15;;;3.15;;
34725;SDS011;20951;50.818;4.344;2023-02-18T07:59:33;13.57;;;3.33;;
34725;SDS011;20951;50.818;4.344;2023-02-18T08:02:01;16.25;;;3.13;;
34725;SDS011;20951;50.818;4.344;2023-02-18T08:04:30;12.02;;;3.10;;
34725;SDS011;20951;50.818;4.344;2023-02-18T08:06:57;15.82;;;3.63;;
34725;SDS011;20951;50.818;4.344;2023-02-18T08:09:25;19.92;;;3.47;;
34725;SDS011;20951;50.818;4.344;2023-02-18T08:11:53;16.10;;;3.15;;
34725;SDS011;20951;50.818;4.344;2023-02-18T08:14:21;16.33;;;2.83;;
34725;SDS011;20951;50.818;4.344;2023-02-18T08:16:50;16.33;;;2.95;;
34725;SDS011;20951;50.818;4.344;2023-02-18T08:19:18;17.77;;;3.42;;
34725;SDS011;20951;50.818;4.344;2023-02-18T08:21:45;13.95;;;2.97;;
34725;SDS011;20951;50.818;4.344;2023-02-18T08:24:13;17.63;;;3.15;;
34725;SDS011;20951;50.818;4.344;2023-02-18T08:26:41;22.33;;;3.65;;
34725;SDS011;20951;50.818;4.344;2023-02-18T08:29:10;17.70;;;3.10;;
34725;SDS011;20951;50.818;4.344;2023-02-18T08:31:38;13.75;;;2.83;;
34725;SDS011;20951;50.818;4.344;2023-02-18T08:34:05;13.13;;;2.72;;
34725;SDS011;20951;50.818;4.344;2023-02-18T08:36:34;15.55;;;3.05;;
34725;SDS011;20951;50.818;4.344;2023-02-18T08:39:01;14.70;;;2.95;;
34725;SDS011;20951;50.818;4.344;2023-02-18T08:41:29;14.38;;;2.90;;
34725;SDS011;20951;50.818;4.344;2023-02-18T08:43:57;14.15;;;2.72;;
34725;SDS011;20951;50.818;4.344;2023-02-18T08:46:25;11.02;;;2.47;;
34725;SDS011;20951;50.818;4.344;2023-02-18T08:48:53;16.80;;;2.80;;
34725;SDS011;20951;50.818;4.344;2023-02-18T08:51:21;11.95;;;2.60;;
34725;SDS011;20951;50.818;4.344;2023-02-18T08:53:50;11.50;;;2.28;;
34725;SDS011;20951;50.818;4.344;2023-02-18T08:56:18;13.13;;;2.80;;
34725;SDS011;20951;50.818;4.344;2023-02-18T08:58:46;15.55;;;2.70;;
34725;SDS011;20951;50.818;4.344;2023-02-18T09:01:13;11.38;;;2.10;;
34725;SDS011;20951;50.818;4.344;2023-02-18T09:03:41;9.07;;;1.98;;
34725;SDS011;20951;50.818;4.344;2023-02-18T09:06:09;9.40;;;1.90;;
34725;SDS011;20951;50.818;4.344;2023-02-18T09:08:37;9.68;;;1.88;;
34725;SDS011;20951;50.818;4.344;2023-02-18T09:11:04;9.73;;;2.33;;
34725;SDS011;20951;50.818;4.344;2023-02-18T09:13:32;11.02;;;2.15;;
34725;SDS011;20951;50.818;4.344;2023-02-18T09:16:00;6.07;;;1.52;;
34725;SDS011;20951;50.818;4.344;2023-02-18T09:18:31;10.68;;;2.40;;
34725;SDS011;20951;50.818;4.344;2023-02-18T09:21:00;9.95;;;2.17;;
34725;SDS011;20951;50.818;4.344;2023-02-18T09:23:29;11.65;;;2.00;;
34725;SDS011;20951;50.818;4.344;2023-02-18T09:25:58;11.95;;;1.95;;
34725;SDS011;20951;50.818;4.344;2023-02-18T09:28:25;10.73;;;2.17;;
34725;SDS011;20951;50.818;4.344;2023-02-18T09:30:53;8.52;;;1.92;;
34725;SDS011;20951;50.818;4.344;2023-02-18T09:33:21;10.63;;;2.15;;
34725;SDS011;20951;50.818;4.344;2023-02-18T09:35:47;8.30;;;1.52;;
34725;SDS011;20951;50.818;4.344;2023-02-18T09:38:14;10.57;;;1.90;;
34725;SDS011;20951;50.818;4.344;2023-02-18T09:40:44;10.05;;;2.30;;
34725;SDS011;20951;50.818;4.344;2023-02-18T09:43:18;9.48;;;2.08;;
34725;SDS011;20951;50.818;4.344;2023-02-18T09:45:48;9.82;;;2.00;;
34725;SDS011;20951;50.818;4.344;2023-02-18T09:48:18;9.32;;;2.00;;
34725;SDS011;20951;50.818;4.344;2023-02-18T09:50:51;8.43;;;2.08;;
34725;SDS011;20951;50.818;4.344;2023-02-18T09:53:18;9.88;;;2.25;;
34725;SDS011;20951;50.818;4.344;2023-02-18T09:55:48;11.93;;;2.40;;
34725;SDS011;20951;50.818;4.344;2023-02-18T09:58:19;9.70;;;2.47;;
34725;SDS011;20951;50.818;4.344;2023-02-18T10:00:50;13.93;;;2.50;;
34725;SDS011;20951;50.818;4.344;2023-02-18T10:03:29;9.38;;;2.42;;
34725;SDS011;20951;50.818;4.344;2023-02-18T10:08:43;13.07;;;3.05;;
34725;SDS011;20951;50.818;4.344;2023-02-18T10:11:15;12.93;;;2.45;;
34725;SDS011;20951;50.818;4.344;2023-02-18T10:13:48;10.77;;;2.53;;
34725;SDS011;20951;50.818;4.344;2023-02-18T10:16:18;11.15;;;3.47;;
34725;SDS011;20951;50.818;4.344;2023-02-18T10:18:53;12.35;;;2.63;;
34725;SDS011;20951;50.818;4.344;2023-02-18T10:21:27;11.20;;;2.67;;
34725;SDS011;20951;50.818;4.344;2023-02-18T10:24:02;10.35;;;2.30;;
34725;SDS011;20951;50.818;4.344;2023-02-18T10:26:39;11.63;;;2.85;;
34725;SDS011;20951;50.818;4.344;2023-02-18T10:29:15;11.98;;;2.45;;
34725;SDS011;20951;50.818;4.344;2023-02-18T10:31:48;10.10;;;2.38;;
34725;SDS011;20951;50.818;4.344;2023-02-18T10:42:38;10.48;;;2.83;;
34725;SDS011;20951;50.818;4.344;2023-02-18T10:48:09;12.35;;;2.92;;
34725;SDS011;20951;50.818;4.344;2023-02-18T10:50:50;9.52;;;3.05;;
34725;SDS011;20951;50.818;4.344;2023-02-18T10:53:37;11.40;;;3.10;;
34725;SDS011;20951;50.818;4.344;2023-02-18T10:56:06;13.07;;;2.90;;
34725;SDS011;20951;50.818;4.344;2023-02-18T10:58:59;10.52;;;2.83;;
34725;SDS011;20951;50.818;4.344;2023-02-18T11:01:37;12.05;;;2.97;;
34725;SDS011;20951;50.818;4.344;2023-02-18T11:04:13;9.90;;;2.78;;
34725;SDS011;20951;50.818;4.344;2023-02-18T11:06:46;8.45;;;2.45;;
34725;SDS011;20951;50.818;4.344;2023-02-18T11:12:05;12.02;;;2.40;;
34725;SDS011;20951;50.818;4.344;2023-02-18T11:17:45;12.32;;;3.20;;
34725;SDS011;20951;50.818;4.344;2023-02-18T11:20:24;8.45;;;2.50;;
34725;SDS011;20951;50.818;4.344;2023-02-18T11:25:35;11.13;;;2.55;;
34725;SDS011;20951;50.818;4.344;2023-02-18T11:28:05;12.65;;;2.55;;
34725;SDS011;20951;50.818;4.344;2023-02-18T11:30:39;11.45;;;2.20;;
34725;SDS011;20951;50.818;4.344;2023-02-18T11:35:50;12.98;;;2.65;;
34725;SDS011;20951;50.818;4.344;2023-02-18T11:41:36;12.77;;;2.90;;
34725;SDS011;20951;50.818;4.344;2023-02-18T11:47:04;12.98;;;2.53;;
34725;SDS011;20951;50.818;4.344;2023-02-18T11:49:31;12.07;;;3.00;;
34725;SDS011;20951;50.818;4.344;2023-02-18T11:52:17;11.73;;;2.70;;
34725;SDS011;20951;50.818;4.344;2023-02-18T11:55:00;17.55;;;3.03;;
34725;SDS011;20951;50.818;4.344;2023-02-18T11:57:40;13.00;;;2.70;;
34725;SDS011;20951;50.818;4.344;2023-02-18T12:00:30;14.38;;;2.60;;
34725;SDS011;20951;50.818;4.344;2023-02-18T12:08:18;18.60;;;2.72;;
34725;SDS011;20951;50.818;4.344;2023-02-18T12:11:08;14.93;;;2.83;;
34725;SDS011;20951;50.818;4.344;2023-02-18T12:13:52;14.90;;;3.08;;
34725;SDS011;20951;50.818;4.344;2023-02-18T12:16:37;10.38;;;2.40;;
34725;SDS011;20951;50.818;4.344;2023-02-18T12:33:44;10.40;;;2.50;;
34725;SDS011;20951;50.818;4.344;2023-02-18T12:36:45;10.65;;;2.60;;
34725;SDS011;20951;50.818;4.344;2023-02-18T12:39:46;13.48;;;3.22;;
34725;SDS011;20951;50.818;4.344;2023-02-18T12:45:29;11.93;;;2.97;;
34725;SDS011;20951;50.818;4.344;2023-02-18T12:48:17;12.27;;;3.00;;
34725;SDS011;20951;50.818;4.344;2023-02-18T13:09:52;13.73;;;2.72;;
34725;SDS011;20951;50.818;4.344;2023-02-18T13:16:01;12.98;;;2.80;;
34725;SDS011;20951;50.818;4.344;2023-02-18T13:18:37;13.82;;;2.60;;
34725;SDS011;20951;50.818;4.344;2023-02-18T13:21:14;12.85;;;3.28;;
34725;SDS011;20951;50.818;4.344;2023-02-18T13:23:52;15.90;;;3.00;;
34725;SDS011;20951;50.818;4.344;2023-02-18T13:26:27;14.20;;;3.30;;
34725;SDS011;20951;50.818;4.344;2023-02-18T13:32:05;14.02;;;2.70;;
34725;SDS011;20951;50.818;4.344;2023-02-18T13:34:47;13.57;;;2.80;;
34725;SDS011;20951;50.818;4.344;2023-02-18T13:39:55;16.45;;;3.10;;
34725;SDS011;20951;50.818;4.344;2023-02-18T13:47:41;17.00;;;3.17;;
34725;SDS011;20951;50.818;4.344;2023-02-18T13:50:15;15.68;;;3.60;;
34725;SDS011;20951;50.818;4.344;2023-02-18T13:52:55;13.73;;;3.53;;
34725;SDS011;20951;50.818;4.344;2023-02-18T13:55:38;17.55;;;3.85;;
34725;SDS011;20951;50.818;4.344;2023-02-18T14:00:59;11.80;;;4.05;;
34725;SDS011;20951;50.818;4.344;2023-02-18T14:06:00;14.75;;;3.90;;
34725;SDS011;20951;50.818;4.344;2023-02-18T14:08:38;13.85;;;4.07;;
34725;SDS011;20951;50.818;4.344;2023-02-18T14:13:54;19.67;;;7.30;;
34725;SDS011;20951;50.818;4.344;2023-02-18T14:19:52;15.55;;;4.03;;
34725;SDS011;20951;50.818;4.344;2023-02-18T14:22:45;14.52;;;5.30;;
34725;SDS011;20951;50.818;4.344;2023-02-18T14:27:55;18.40;;;4.22;;
34725;SDS011;20951;50.818;4.344;2023-02-18T14:30:34;14.75;;;3.70;;
34725;SDS011;20951;50.818;4.344;2023-02-18T14:33:11;14.20;;;3.30;;
34725;SDS011;20951;50.818;4.344;2023-02-18T14:36:28;16.63;;;3.88;;
34725;SDS011;20951;50.818;4.344;2023-02-18T14:49:42;11.20;;;3.13;;
34725;SDS011;20951;50.818;4.344;2023-02-18T14:52:27;13.38;;;3.33;;
34725;SDS011;20951;50.818;4.344;2023-02-18T14:55:14;11.40;;;3.35;;
34725;SDS011;20951;50.818;4.344;2023-02-18T14:57:59;11.70;;;3.08;;
34725;SDS011;20951;50.818;4.344;2023-02-18T15:00:41;17.08;;;3.60;;
34725;SDS011;20951;50.818;4.344;2023-02-18T15:03:14;13.10;;;3.90;;
34725;SDS011;20951;50.818;4.344;2023-02-18T15:05:43;11.93;;;3.20;;
34725;SDS011;20951;50.818;4.344;2023-02-18T15:08:18;16.05;;;3.30;;
34725;SDS011;20951;50.818;4.344;2023-02-18T15:10:52;9.10;;;3.03;;
34725;SDS011;20951;50.818;4.344;2023-02-18T15:13:29;15.65;;;4.13;;
34725;SDS011;20951;50.818;4.344;2023-02-18T15:15:58;12.10;;;5.45;;
34725;SDS011;20951;50.818;4.344;2023-02-18T15:18:36;14.65;;;3.95;;
34725;SDS011;20951;50.818;4.344;2023-02-18T15:21:04;13.75;;;3.33;;
34725;SDS011;20951;50.818;4.344;2023-02-18T15:23:42;9.13;;;3.47;;
34725;SDS011;20951;50.818;4.344;2023-02-18T15:26:11;14.65;;;3.35;;
34725;SDS011;20951;50.818;4.344;2023-02-18T15:28:42;11.35;;;3.80;;
34725;SDS011;20951;50.818;4.344;2023-02-18T15:31:23;13.15;;;3.70;;
34725;SDS011;20951;50.818;4.344;2023-02-18T15:33:52;13.82;;;3.72;;
34725;SDS011;20951;50.818;4.344;2023-02-18T15:36:21;15.00;;;3.95;;
34725;SDS011;20951;50.818;4.344;2023-02-18T15:38:50;13.63;;;3.78;;
34725;SDS011;20951;50.818;4.344;2023-02-18T15:41:19;11.95;;;3.80;;
34725;SDS011;20951;50.818;4.344;2023-02-18T15:43:51;14.40;;;3.83;;
34725;SDS011;20951;50.818;4.344;2023-02-18T15:46:25;14.43;;;4.00;;
34725;SDS011;20951;50.818;4.344;2023-02-18T15:48:53;13.70;;;4.53;;
34725;SDS011;20951;50.818;4.344;2023-02-18T15:51:21;13.57;;;4.15;;
34725;SDS011;20951;50.818;4.344;2023-02-18T15:53:52;13.27;;;3.80;;
34725;SDS011;20951;50.818;4.344;2023-02-18T15:56:26;11.13;;;3.45;;
34725;SDS011;20951;50.818;4.344;2023-02-18T15:59:13;11.43;;;3.72;;
34725;SDS011;20951;50.818;4.344;2023-02-18T16:01:49;11.93;;;3.30;;
34725;SDS011;20951;50.818;4.344;2023-02-18T16:06:52;8.48;;;3.22;;
34725;SDS011;20951;50.818;4.344;2023-02-18T16:09:33;8.05;;;3.05;;
34725;SDS011;20951;50.818;4.344;2023-02-18T16:12:04;6.88;;;3.25;;
34725;SDS011;20951;50.818;4.344;2023-02-18T16:14:59;10.38;;;3.58;;
34725;SDS011;20951;50.818;4.344;2023-02-18T16:17:27;10.25;;;3.67;;
34725;SDS011;20951;50.818;4.344;2023-02-18T16:19:58;8.75;;;3.05;;
34725;SDS011;20951;50.818;4.344;2023-02-18T16:24:59;8.52;;;3.15;;
34725;SDS011;20951;50.818;4.344;2023-02-18T16:27:36;9.10;;;3.15;;
34725;SDS011;20951;50.818;4.344;2023-02-18T16:30:25;8.88;;;3.95;;
34725;SDS011;20951;50.818;4.344;2023-02-18T16:32:53;11.80;;;3.38;;
34725;SDS011;20951;50.818;4.344;2023-02-18T16:35:23;7.82;;;3.42;;
34725;SDS011;20951;50.818;4.344;2023-02-18T16:37:53;10.77;;;3.63;;
34725;SDS011;20951;50.818;4.344;2023-02-18T16:40:31;9.23;;;3.58;;
34725;SDS011;20951;50.818;4.344;2023-02-18T16:43:14;11.35;;;4.00;;
34725;SDS011;20951;50.818;4.344;2023-02-18T16:45:44;9.85;;;3.78;;
34725;SDS011;20951;50.818;4.344;2023-02-18T16:48:27;10.43;;;3.80;;
34725;SDS011;20951;50.818;4.344;2023-02-18T16:53:46;8.43;;;3.38;;
34725;SDS011;20951;50.818;4.344;2023-02-18T16:56:15;9.20;;;3.85;;
34725;SDS011;20951;50.818;4.344;2023-02-18T16:58:44;9.68;;;3.45;;
34725;SDS011;20951;50.818;4.344;2023-02-18T17:01:22;10.75;;;4.00;;
34725;SDS011;20951;50.818;4.344;2023-02-18T17:03:50;8.50;;;3.97;;
34725;SDS011;20951;50.818;4.344;2023-02-18T17:06:18;8.63;;;3.60;;
34725;SDS011;20951;50.818;4.344;2023-02-18T17:08:47;8.98;;;3.63;;
34725;SDS011;20951;50.818;4.344;2023-02-18T17:13:51;10.65;;;4.20;;
34725;SDS011;20951;50.818;4.344;2023-02-18T17:16:22;10.15;;;3.75;;
34725;SDS011;20951;50.818;4.344;2023-02-18T17:18:50;12.45;;;4.32;;
34725;SDS011;20951;50.818;4.344;2023-02-18T17:21:19;10.15;;;4.22;;
34725;SDS011;20951;50.818;4.344;2023-02-18T17:23:49;10.10;;;4.18;;
34725;SDS011;20951;50.818;4.344;2023-02-18T17:26:23;9.32;;;4.28;;
34725;SDS011;20951;50.818;4.344;2023-02-18T17:28:53;11.88;;;4.90;;
34725;SDS011;20951;50.818;4.344;2023-02-18T17:31:28;12.15;;;4.85;;
34725;SDS011;20951;50.818;4.344;2023-02-18T17:34:00;9.27;;;4.47;;
34725;SDS011;20951;50.818;4.344;2023-02-18T17:36:31;13.55;;;5.00;;
34725;SDS011;20951;50.818;4.344;2023-02-18T17:38:59;11.93;;;5.40;;
34725;SDS011;20951;50.818;4.344;2023-02-18T17:41:26;9.40;;;5.20;;
34725;SDS011;20951;50.818;4.344;2023-02-18T17:43:54;11.13;;;5.35;;